sensor_id;sensor_type;location;lat;lon;timestamp;pressure;altitude;pressure_sealevel;temperature
12918;BMP180;6526;54.312;13.092;2023-07-31T00:00:31;101225.00;;;18.80
12918;BMP180;6526;54.312;13.092;2023-07-31T00:02:57;101226.00;;;18.70
12918;BMP180;6526;54.312;13.092;2023-07-31T00:05:23;101228.00;;;18.70
12918;BMP180;6526;54.312;13.092;2023-07-31T00:07:49;101220.00;;;18.70
12918;BMP180;6526;54.312;13.092;2023-07-31T00:10:15;101218.00;;;18.70
12918;BMP180;6526;54.312;13.092;2023-07-31T00:12:44;101216.00;;;18.70
12918;BMP180;6526;54.312;13.092;2023-07-31T00:15:11;101214.00;;;18.70
12918;BMP180;6526;54.312;13.092;2023-07-31T00:17:37;101219.00;;;18.70
12918;BMP180;6526;54.312;13.092;2023-07-31T00:20:04;101223.00;;;18.70
12918;BMP180;6526;54.312;13.092;2023-07-31T00:22:30;101214.00;;;18.70
12918;BMP180;6526;54.312;13.092;2023-07-31T00:24:56;101215.00;;;18.70
12918;BMP180;6526;54.312;13.092;2023-07-31T00:27:23;101213.00;;;18.60
12918;BMP180;6526;54.312;13.092;2023-07-31T00:29:49;101202.00;;;18.60
12918;BMP180;6526;54.312;13.092;2023-07-31T00:32:15;101212.00;;;18.60
12918;BMP180;6526;54.312;13.092;2023-07-31T00:34:41;101201.00;;;18.50
12918;BMP180;6526;54.312;13.092;2023-07-31T00:37:07;101194.00;;;18.50
12918;BMP180;6526;54.312;13.092;2023-07-31T00:39:34;101203.00;;;18.50
12918;BMP180;6526;54.312;13.092;2023-07-31T00:42:01;101201.00;;;18.50
12918;BMP180;6526;54.312;13.092;2023-07-31T00:44:27;101198.00;;;18.50
12918;BMP180;6526;54.312;13.092;2023-07-31T00:46:54;101190.00;;;18.40
12918;BMP180;6526;54.312;13.092;2023-07-31T00:49:22;101189.00;;;18.40
12918;BMP180;6526;54.312;13.092;2023-07-31T00:51:48;101186.00;;;18.30
12918;BMP180;6526;54.312;13.092;2023-07-31T00:54:14;101176.00;;;18.30
12918;BMP180;6526;54.312;13.092;2023-07-31T00:56:41;101179.00;;;18.30
12918;BMP180;6526;54.312;13.092;2023-07-31T00:59:10;101182.00;;;18.20
12918;BMP180;6526;54.312;13.092;2023-07-31T01:01:36;101175.00;;;18.30
12918;BMP180;6526;54.312;13.092;2023-07-31T01:04:02;101179.00;;;18.20
12918;BMP180;6526;54.312;13.092;2023-07-31T01:06:44;101175.00;;;18.30
12918;BMP180;6526;54.312;13.092;2023-07-31T01:09:20;101168.00;;;18.20
12918;BMP180;6526;54.312;13.092;2023-07-31T01:11:52;101168.00;;;18.10
12918;BMP180;6526;54.312;13.092;2023-07-31T01:14:18;101178.00;;;18.10
12918;BMP180;6526;54.312;13.092;2023-07-31T01:16:44;101159.00;;;18.10
12918;BMP180;6526;54.312;13.092;2023-07-31T01:19:12;101159.00;;;18.00
12918;BMP180;6526;54.312;13.092;2023-07-31T01:24:55;101172.00;;;18.00
12918;BMP180;6526;54.312;13.092;2023-07-31T01:27:30;101163.00;;;18.00
12918;BMP180;6526;54.312;13.092;2023-07-31T01:30:05;101159.00;;;17.90
12918;BMP180;6526;54.312;13.092;2023-07-31T01:32:39;101160.00;;;17.90
12918;BMP180;6526;54.312;13.092;2023-07-31T01:35:06;101167.00;;;17.90
12918;BMP180;6526;54.312;13.092;2023-07-31T01:37:33;101161.00;;;17.90
12918;BMP180;6526;54.312;13.092;2023-07-31T01:39:59;101155.00;;;17.80
12918;BMP180;6526;54.312;13.092;2023-07-31T01:42:25;101162.00;;;17.80
12918;BMP180;6526;54.312;13.092;2023-07-31T01:44:51;101159.00;;;17.80
12918;BMP180;6526;54.312;13.092;2023-07-31T01:47:17;101156.00;;;17.70
12918;BMP180;6526;54.312;13.092;2023-07-31T01:49:43;101143.00;;;17.70
12918;BMP180;6526;54.312;13.092;2023-07-31T01:52:09;101150.00;;;17.70
12918;BMP180;6526;54.312;13.092;2023-07-31T01:54:35;101147.00;;;17.60
12918;BMP180;6526;54.312;13.092;2023-07-31T01:57:02;101146.00;;;17.60
12918;BMP180;6526;54.312;13.092;2023-07-31T01:59:28;101144.00;;;17.60
12918;BMP180;6526;54.312;13.092;2023-07-31T02:01:54;101151.00;;;17.50
12918;BMP180;6526;54.312;13.092;2023-07-31T02:04:21;101162.00;;;17.50
12918;BMP180;6526;54.312;13.092;2023-07-31T02:06:46;101148.00;;;17.50
12918;BMP180;6526;54.312;13.092;2023-07-31T02:09:12;101158.00;;;17.50
12918;BMP180;6526;54.312;13.092;2023-07-31T02:11:38;101164.00;;;17.50
12918;BMP180;6526;54.312;13.092;2023-07-31T02:14:04;101164.00;;;17.40
12918;BMP180;6526;54.312;13.092;2023-07-31T02:16:30;101156.00;;;17.50
12918;BMP180;6526;54.312;13.092;2023-07-31T02:18:56;101173.00;;;17.50
12918;BMP180;6526;54.312;13.092;2023-07-31T02:21:22;101166.00;;;17.50
12918;BMP180;6526;54.312;13.092;2023-07-31T02:23:48;101157.00;;;17.40
12918;BMP180;6526;54.312;13.092;2023-07-31T02:26:14;101150.00;;;17.40
12918;BMP180;6526;54.312;13.092;2023-07-31T02:28:40;101146.00;;;17.30
12918;BMP180;6526;54.312;13.092;2023-07-31T02:31:08;101152.00;;;17.40
12918;BMP180;6526;54.312;13.092;2023-07-31T02:33:35;101150.00;;;17.40
12918;BMP180;6526;54.312;13.092;2023-07-31T02:36:01;101146.00;;;17.40
12918;BMP180;6526;54.312;13.092;2023-07-31T02:38:27;101142.00;;;17.40
12918;BMP180;6526;54.312;13.092;2023-07-31T02:40:53;101142.00;;;17.40
12918;BMP180;6526;54.312;13.092;2023-07-31T02:43:19;101127.00;;;17.40
12918;BMP180;6526;54.312;13.092;2023-07-31T02:45:45;101126.00;;;17.30
12918;BMP180;6526;54.312;13.092;2023-07-31T02:48:11;101125.00;;;17.40
12918;BMP180;6526;54.312;13.092;2023-07-31T02:50:37;101108.00;;;17.30
12918;BMP180;6526;54.312;13.092;2023-07-31T02:53:03;101116.00;;;17.40
12918;BMP180;6526;54.312;13.092;2023-07-31T02:55:29;101125.00;;;17.20
12918;BMP180;6526;54.312;13.092;2023-07-31T02:57:55;101123.00;;;17.40
12918;BMP180;6526;54.312;13.092;2023-07-31T03:00:21;101113.00;;;17.30
12918;BMP180;6526;54.312;13.092;2023-07-31T03:02:47;101116.00;;;17.30
12918;BMP180;6526;54.312;13.092;2023-07-31T03:05:13;101115.00;;;17.20
12918;BMP180;6526;54.312;13.092;2023-07-31T03:07:39;101115.00;;;17.10
12918;BMP180;6526;54.312;13.092;2023-07-31T03:10:05;101114.00;;;17.10
12918;BMP180;6526;54.312;13.092;2023-07-31T03:12:32;101109.00;;;17.10
12918;BMP180;6526;54.312;13.092;2023-07-31T03:14:58;101118.00;;;17.00
12918;BMP180;6526;54.312;13.092;2023-07-31T03:17:24;101124.00;;;17.00
12918;BMP180;6526;54.312;13.092;2023-07-31T03:19:50;101127.00;;;17.00
12918;BMP180;6526;54.312;13.092;2023-07-31T03:22:16;101119.00;;;17.00
12918;BMP180;6526;54.312;13.092;2023-07-31T03:24:42;101112.00;;;17.00
12918;BMP180;6526;54.312;13.092;2023-07-31T03:27:08;101109.00;;;16.90
12918;BMP180;6526;54.312;13.092;2023-07-31T03:29:34;101120.00;;;16.90
12918;BMP180;6526;54.312;13.092;2023-07-31T03:32:00;101124.00;;;17.00
12918;BMP180;6526;54.312;13.092;2023-07-31T03:34:26;101114.00;;;16.90
12918;BMP180;6526;54.312;13.092;2023-07-31T03:36:52;101114.00;;;17.00
12918;BMP180;6526;54.312;13.092;2023-07-31T03:39:18;101109.00;;;17.00
12918;BMP180;6526;54.312;13.092;2023-07-31T03:41:45;101108.00;;;17.10
12918;BMP180;6526;54.312;13.092;2023-07-31T03:44:11;101113.00;;;17.00
12918;BMP180;6526;54.312;13.092;2023-07-31T03:46:37;101108.00;;;17.00
12918;BMP180;6526;54.312;13.092;2023-07-31T03:49:03;101104.00;;;17.10
12918;BMP180;6526;54.312;13.092;2023-07-31T03:51:29;101110.00;;;17.10
12918;BMP180;6526;54.312;13.092;2023-07-31T03:53:55;101112.00;;;17.10
12918;BMP180;6526;54.312;13.092;2023-07-31T03:56:21;101119.00;;;17.20
12918;BMP180;6526;54.312;13.092;2023-07-31T03:58:48;101140.00;;;17.20
12918;BMP180;6526;54.312;13.092;2023-07-31T04:01:14;101123.00;;;17.30
12918;BMP180;6526;54.312;13.092;2023-07-31T04:03:40;101122.00;;;17.30
12918;BMP180;6526;54.312;13.092;2023-07-31T04:06:06;101122.00;;;17.30
12918;BMP180;6526;54.312;13.092;2023-07-31T04:08:33;101119.00;;;17.40
12918;BMP180;6526;54.312;13.092;2023-07-31T04:10:59;101111.00;;;17.40
12918;BMP180;6526;54.312;13.092;2023-07-31T04:13:25;101103.00;;;17.50
12918;BMP180;6526;54.312;13.092;2023-07-31T04:15:53;101104.00;;;17.50
12918;BMP180;6526;54.312;13.092;2023-07-31T04:18:20;101091.00;;;17.50
12918;BMP180;6526;54.312;13.092;2023-07-31T04:20:46;101095.00;;;17.50
12918;BMP180;6526;54.312;13.092;2023-07-31T04:23:12;101093.00;;;17.60
12918;BMP180;6526;54.312;13.092;2023-07-31T04:25:38;101099.00;;;17.60
12918;BMP180;6526;54.312;13.092;2023-07-31T04:28:04;101094.00;;;17.50
12918;BMP180;6526;54.312;13.092;2023-07-31T04:30:30;101092.00;;;17.50
12918;BMP180;6526;54.312;13.092;2023-07-31T04:32:56;101096.00;;;17.50
12918;BMP180;6526;54.312;13.092;2023-07-31T04:35:22;101101.00;;;17.60
12918;BMP180;6526;54.312;13.092;2023-07-31T04:37:48;101102.00;;;17.60
12918;BMP180;6526;54.312;13.092;2023-07-31T04:40:15;101095.00;;;17.60
12918;BMP180;6526;54.312;13.092;2023-07-31T04:42:41;101090.00;;;17.60
12918;BMP180;6526;54.312;13.092;2023-07-31T04:45:09;101095.00;;;17.70
12918;BMP180;6526;54.312;13.092;2023-07-31T04:47:35;101090.00;;;17.70
12918;BMP180;6526;54.312;13.092;2023-07-31T04:50:01;101091.00;;;17.70
12918;BMP180;6526;54.312;13.092;2023-07-31T04:52:27;101090.00;;;17.80
12918;BMP180;6526;54.312;13.092;2023-07-31T04:54:53;101084.00;;;17.80
12918;BMP180;6526;54.312;13.092;2023-07-31T04:57:19;101076.00;;;17.90
12918;BMP180;6526;54.312;13.092;2023-07-31T04:59:45;101079.00;;;17.90
12918;BMP180;6526;54.312;13.092;2023-07-31T05:02:12;101073.00;;;17.90
12918;BMP180;6526;54.312;13.092;2023-07-31T05:04:39;101067.00;;;17.90
12918;BMP180;6526;54.312;13.092;2023-07-31T05:07:05;101061.00;;;17.80
12918;BMP180;6526;54.312;13.092;2023-07-31T05:09:31;101059.00;;;17.80
12918;BMP180;6526;54.312;13.092;2023-07-31T05:11:57;101058.00;;;17.80
12918;BMP180;6526;54.312;13.092;2023-07-31T05:14:23;101063.00;;;17.80
12918;BMP180;6526;54.312;13.092;2023-07-31T05:16:49;101060.00;;;17.80
12918;BMP180;6526;54.312;13.092;2023-07-31T05:19:15;101057.00;;;17.90
12918;BMP180;6526;54.312;13.092;2023-07-31T05:21:41;101048.00;;;17.90
12918;BMP180;6526;54.312;13.092;2023-07-31T05:24:07;101048.00;;;17.90
12918;BMP180;6526;54.312;13.092;2023-07-31T05:26:33;101045.00;;;17.90
12918;BMP180;6526;54.312;13.092;2023-07-31T05:28:59;101040.00;;;17.90
12918;BMP180;6526;54.312;13.092;2023-07-31T05:31:25;101044.00;;;17.90
12918;BMP180;6526;54.312;13.092;2023-07-31T05:33:51;101033.00;;;18.00
12918;BMP180;6526;54.312;13.092;2023-07-31T05:36:17;101032.00;;;18.00
12918;BMP180;6526;54.312;13.092;2023-07-31T05:38:44;101038.00;;;18.00
12918;BMP180;6526;54.312;13.092;2023-07-31T05:41:13;101032.00;;;18.10
12918;BMP180;6526;54.312;13.092;2023-07-31T05:43:39;101026.00;;;18.10
12918;BMP180;6526;54.312;13.092;2023-07-31T05:46:06;101020.00;;;18.10
12918;BMP180;6526;54.312;13.092;2023-07-31T05:48:32;101020.00;;;18.10
12918;BMP180;6526;54.312;13.092;2023-07-31T05:51:00;101019.00;;;18.10
12918;BMP180;6526;54.312;13.092;2023-07-31T05:53:26;101019.00;;;18.20
12918;BMP180;6526;54.312;13.092;2023-07-31T05:55:52;101012.00;;;18.30
12918;BMP180;6526;54.312;13.092;2023-07-31T05:58:18;101016.00;;;18.30
12918;BMP180;6526;54.312;13.092;2023-07-31T06:00:44;101007.00;;;18.30
12918;BMP180;6526;54.312;13.092;2023-07-31T06:03:10;101014.00;;;18.30
12918;BMP180;6526;54.312;13.092;2023-07-31T06:05:36;101014.00;;;18.30
12918;BMP180;6526;54.312;13.092;2023-07-31T06:08:02;101009.00;;;18.30
12918;BMP180;6526;54.312;13.092;2023-07-31T06:10:28;101027.00;;;18.40
12918;BMP180;6526;54.312;13.092;2023-07-31T06:12:54;101012.00;;;18.40
12918;BMP180;6526;54.312;13.092;2023-07-31T06:15:20;101012.00;;;18.40
12918;BMP180;6526;54.312;13.092;2023-07-31T06:17:46;101012.00;;;18.60
12918;BMP180;6526;54.312;13.092;2023-07-31T06:20:12;101012.00;;;18.70
12918;BMP180;6526;54.312;13.092;2023-07-31T06:22:39;101008.00;;;18.80
12918;BMP180;6526;54.312;13.092;2023-07-31T06:25:05;101003.00;;;18.80
12918;BMP180;6526;54.312;13.092;2023-07-31T06:27:31;101013.00;;;18.90
12918;BMP180;6526;54.312;13.092;2023-07-31T06:29:57;101004.00;;;18.90
12918;BMP180;6526;54.312;13.092;2023-07-31T06:32:23;101006.00;;;18.90
12918;BMP180;6526;54.312;13.092;2023-07-31T06:34:49;101003.00;;;18.90
12918;BMP180;6526;54.312;13.092;2023-07-31T06:37:16;101003.00;;;19.10
12918;BMP180;6526;54.312;13.092;2023-07-31T06:39:42;101010.00;;;19.20
12918;BMP180;6526;54.312;13.092;2023-07-31T06:42:08;101006.00;;;19.30
12918;BMP180;6526;54.312;13.092;2023-07-31T06:44:34;101000.00;;;19.40
12918;BMP180;6526;54.312;13.092;2023-07-31T06:47:00;100988.00;;;19.60
12918;BMP180;6526;54.312;13.092;2023-07-31T06:49:26;100993.00;;;19.60
12918;BMP180;6526;54.312;13.092;2023-07-31T06:51:53;101000.00;;;19.60
12918;BMP180;6526;54.312;13.092;2023-07-31T06:54:19;100939.00;;;19.70
12918;BMP180;6526;54.312;13.092;2023-07-31T06:56:45;100989.00;;;19.60
12918;BMP180;6526;54.312;13.092;2023-07-31T06:59:11;100997.00;;;19.70
12918;BMP180;6526;54.312;13.092;2023-07-31T07:01:37;100990.00;;;19.80
12918;BMP180;6526;54.312;13.092;2023-07-31T07:04:03;100985.00;;;19.80
12918;BMP180;6526;54.312;13.092;2023-07-31T07:06:29;100997.00;;;19.90
12918;BMP180;6526;54.312;13.092;2023-07-31T07:08:55;100980.00;;;19.90
12918;BMP180;6526;54.312;13.092;2023-07-31T07:11:21;100981.00;;;19.90
12918;BMP180;6526;54.312;13.092;2023-07-31T07:13:47;100972.00;;;20.00
12918;BMP180;6526;54.312;13.092;2023-07-31T07:16:13;100961.00;;;20.10
12918;BMP180;6526;54.312;13.092;2023-07-31T07:18:39;100970.00;;;20.10
12918;BMP180;6526;54.312;13.092;2023-07-31T07:21:05;100964.00;;;20.20
12918;BMP180;6526;54.312;13.092;2023-07-31T07:23:31;100973.00;;;20.20
12918;BMP180;6526;54.312;13.092;2023-07-31T07:25:57;100966.00;;;20.30
12918;BMP180;6526;54.312;13.092;2023-07-31T07:28:23;100969.00;;;20.30
12918;BMP180;6526;54.312;13.092;2023-07-31T07:30:52;100957.00;;;20.30
12918;BMP180;6526;54.312;13.092;2023-07-31T07:33:21;100967.00;;;20.30
12918;BMP180;6526;54.312;13.092;2023-07-31T07:35:47;100958.00;;;20.30
12918;BMP180;6526;54.312;13.092;2023-07-31T07:38:14;100956.00;;;20.40
12918;BMP180;6526;54.312;13.092;2023-07-31T07:40:41;100963.00;;;20.40
12918;BMP180;6526;54.312;13.092;2023-07-31T07:43:07;100955.00;;;20.40
12918;BMP180;6526;54.312;13.092;2023-07-31T07:45:33;100954.00;;;20.30
12918;BMP180;6526;54.312;13.092;2023-07-31T07:47:59;100945.00;;;20.30
12918;BMP180;6526;54.312;13.092;2023-07-31T07:50:25;100948.00;;;20.20
12918;BMP180;6526;54.312;13.092;2023-07-31T07:52:51;100946.00;;;20.20
12918;BMP180;6526;54.312;13.092;2023-07-31T07:55:17;100953.00;;;20.20
12918;BMP180;6526;54.312;13.092;2023-07-31T07:57:43;100947.00;;;20.20
12918;BMP180;6526;54.312;13.092;2023-07-31T08:00:12;100935.00;;;20.30
12918;BMP180;6526;54.312;13.092;2023-07-31T08:02:38;100948.00;;;20.40
12918;BMP180;6526;54.312;13.092;2023-07-31T08:05:04;100943.00;;;20.40
12918;BMP180;6526;54.312;13.092;2023-07-31T08:07:30;100941.00;;;20.40
12918;BMP180;6526;54.312;13.092;2023-07-31T08:09:56;100948.00;;;20.50
12918;BMP180;6526;54.312;13.092;2023-07-31T08:12:22;100949.00;;;20.50
12918;BMP180;6526;54.312;13.092;2023-07-31T08:14:48;100944.00;;;20.50
12918;BMP180;6526;54.312;13.092;2023-07-31T08:17:14;100955.00;;;20.60
12918;BMP180;6526;54.312;13.092;2023-07-31T08:19:40;100957.00;;;20.60
12918;BMP180;6526;54.312;13.092;2023-07-31T08:22:06;100940.00;;;20.70
12918;BMP180;6526;54.312;13.092;2023-07-31T08:24:32;100947.00;;;20.70
12918;BMP180;6526;54.312;13.092;2023-07-31T08:26:58;100948.00;;;20.70
12918;BMP180;6526;54.312;13.092;2023-07-31T08:29:25;100940.00;;;20.80
12918;BMP180;6526;54.312;13.092;2023-07-31T08:31:51;100932.00;;;20.90
12918;BMP180;6526;54.312;13.092;2023-07-31T08:34:17;100938.00;;;20.90
12918;BMP180;6526;54.312;13.092;2023-07-31T08:36:43;100921.00;;;20.90
12918;BMP180;6526;54.312;13.092;2023-07-31T08:39:09;100923.00;;;20.90
12918;BMP180;6526;54.312;13.092;2023-07-31T08:41:39;100926.00;;;20.80
12918;BMP180;6526;54.312;13.092;2023-07-31T08:44:06;100926.00;;;20.90
12918;BMP180;6526;54.312;13.092;2023-07-31T08:46:33;100927.00;;;20.90
12918;BMP180;6526;54.312;13.092;2023-07-31T08:49:00;100928.00;;;21.00
12918;BMP180;6526;54.312;13.092;2023-07-31T08:51:28;100916.00;;;21.00
12918;BMP180;6526;54.312;13.092;2023-07-31T08:53:55;100913.00;;;21.00
12918;BMP180;6526;54.312;13.092;2023-07-31T08:56:23;100918.00;;;21.10
12918;BMP180;6526;54.312;13.092;2023-07-31T08:58:50;100915.00;;;21.20
12918;BMP180;6526;54.312;13.092;2023-07-31T09:01:16;100915.00;;;21.10
12918;BMP180;6526;54.312;13.092;2023-07-31T09:03:44;100910.00;;;21.10
12918;BMP180;6526;54.312;13.092;2023-07-31T09:06:11;100915.00;;;21.20
12918;BMP180;6526;54.312;13.092;2023-07-31T09:08:41;100912.00;;;21.30
12918;BMP180;6526;54.312;13.092;2023-07-31T09:11:07;100911.00;;;21.30
12918;BMP180;6526;54.312;13.092;2023-07-31T09:13:35;100912.00;;;21.20
12918;BMP180;6526;54.312;13.092;2023-07-31T09:16:01;100914.00;;;21.50
12918;BMP180;6526;54.312;13.092;2023-07-31T09:18:27;100905.00;;;21.50
12918;BMP180;6526;54.312;13.092;2023-07-31T09:21:05;100914.00;;;21.60
12918;BMP180;6526;54.312;13.092;2023-07-31T09:23:45;100909.00;;;21.50
12918;BMP180;6526;54.312;13.092;2023-07-31T09:26:11;100909.00;;;21.60
12918;BMP180;6526;54.312;13.092;2023-07-31T09:28:53;100899.00;;;21.60
12918;BMP180;6526;54.312;13.092;2023-07-31T09:31:41;100901.00;;;21.60
12918;BMP180;6526;54.312;13.092;2023-07-31T09:34:08;100890.00;;;21.60
12918;BMP180;6526;54.312;13.092;2023-07-31T09:36:43;100895.00;;;21.70
12918;BMP180;6526;54.312;13.092;2023-07-31T09:39:11;100884.00;;;21.80
12918;BMP180;6526;54.312;13.092;2023-07-31T09:41:38;100890.00;;;21.80
12918;BMP180;6526;54.312;13.092;2023-07-31T09:44:05;100893.00;;;21.90
12918;BMP180;6526;54.312;13.092;2023-07-31T09:46:33;100886.00;;;21.90
12918;BMP180;6526;54.312;13.092;2023-07-31T09:49:08;100885.00;;;22.00
12918;BMP180;6526;54.312;13.092;2023-07-31T09:51:38;100894.00;;;22.20
12918;BMP180;6526;54.312;13.092;2023-07-31T09:54:13;100891.00;;;22.30
12918;BMP180;6526;54.312;13.092;2023-07-31T09:56:44;100895.00;;;22.30
12918;BMP180;6526;54.312;13.092;2023-07-31T09:59:12;100884.00;;;22.30
12918;BMP180;6526;54.312;13.092;2023-07-31T10:01:41;100889.00;;;22.30
12918;BMP180;6526;54.312;13.092;2023-07-31T10:04:08;100898.00;;;22.30
12918;BMP180;6526;54.312;13.092;2023-07-31T10:06:37;100884.00;;;22.30
12918;BMP180;6526;54.312;13.092;2023-07-31T10:09:06;100893.00;;;22.30
12918;BMP180;6526;54.312;13.092;2023-07-31T10:11:41;100893.00;;;22.40
12918;BMP180;6526;54.312;13.092;2023-07-31T10:14:08;100882.00;;;22.40
12918;BMP180;6526;54.312;13.092;2023-07-31T10:16:37;100876.00;;;22.50
12918;BMP180;6526;54.312;13.092;2023-07-31T10:19:04;100868.00;;;22.70
12918;BMP180;6526;54.312;13.092;2023-07-31T10:21:31;100860.00;;;22.80
12918;BMP180;6526;54.312;13.092;2023-07-31T10:24:03;100856.00;;;22.90
12918;BMP180;6526;54.312;13.092;2023-07-31T10:26:31;100853.00;;;22.90
12918;BMP180;6526;54.312;13.092;2023-07-31T10:28:58;100852.00;;;22.90
12918;BMP180;6526;54.312;13.092;2023-07-31T10:31:25;100868.00;;;22.90
12918;BMP180;6526;54.312;13.092;2023-07-31T10:33:52;100865.00;;;22.80
12918;BMP180;6526;54.312;13.092;2023-07-31T10:36:19;100865.00;;;22.90
12918;BMP180;6526;54.312;13.092;2023-07-31T10:38:48;100869.00;;;23.00
12918;BMP180;6526;54.312;13.092;2023-07-31T10:41:14;100865.00;;;23.10
12918;BMP180;6526;54.312;13.092;2023-07-31T10:43:40;100860.00;;;23.10
12918;BMP180;6526;54.312;13.092;2023-07-31T10:46:08;100852.00;;;23.00
12918;BMP180;6526;54.312;13.092;2023-07-31T10:48:35;100857.00;;;23.00
12918;BMP180;6526;54.312;13.092;2023-07-31T10:51:07;100853.00;;;23.00
12918;BMP180;6526;54.312;13.092;2023-07-31T10:53:34;100852.00;;;23.00
12918;BMP180;6526;54.312;13.092;2023-07-31T10:56:05;100858.00;;;23.00
12918;BMP180;6526;54.312;13.092;2023-07-31T10:58:31;100855.00;;;23.00
12918;BMP180;6526;54.312;13.092;2023-07-31T11:01:00;100857.00;;;23.10
12918;BMP180;6526;54.312;13.092;2023-07-31T11:03:41;100838.00;;;23.20
12918;BMP180;6526;54.312;13.092;2023-07-31T11:06:08;100837.00;;;23.30
12918;BMP180;6526;54.312;13.092;2023-07-31T11:08:43;100851.00;;;23.40
12918;BMP180;6526;54.312;13.092;2023-07-31T11:11:11;100839.00;;;23.50
12918;BMP180;6526;54.312;13.092;2023-07-31T11:13:49;100803.00;;;23.50
12918;BMP180;6526;54.312;13.092;2023-07-31T11:16:15;100829.00;;;23.60
12918;BMP180;6526;54.312;13.092;2023-07-31T11:18:43;100837.00;;;23.50
12918;BMP180;6526;54.312;13.092;2023-07-31T11:21:15;100824.00;;;23.50
12918;BMP180;6526;54.312;13.092;2023-07-31T11:23:45;100830.00;;;23.60
12918;BMP180;6526;54.312;13.092;2023-07-31T11:26:12;100846.00;;;23.50
12918;BMP180;6526;54.312;13.092;2023-07-31T11:28:38;100828.00;;;23.60
12918;BMP180;6526;54.312;13.092;2023-07-31T11:31:04;100826.00;;;23.40
12918;BMP180;6526;54.312;13.092;2023-07-31T11:33:31;100822.00;;;23.40
12918;BMP180;6526;54.312;13.092;2023-07-31T11:35:57;100824.00;;;23.30
12918;BMP180;6526;54.312;13.092;2023-07-31T11:38:28;100827.00;;;23.30
12918;BMP180;6526;54.312;13.092;2023-07-31T11:40:56;100821.00;;;23.20
12918;BMP180;6526;54.312;13.092;2023-07-31T11:43:23;100813.00;;;23.30
12918;BMP180;6526;54.312;13.092;2023-07-31T11:45:54;100812.00;;;23.30
12918;BMP180;6526;54.312;13.092;2023-07-31T11:48:28;100811.00;;;23.30
12918;BMP180;6526;54.312;13.092;2023-07-31T11:50:58;100811.00;;;23.20
12918;BMP180;6526;54.312;13.092;2023-07-31T11:53:45;100812.00;;;23.30
12918;BMP180;6526;54.312;13.092;2023-07-31T11:56:16;100808.00;;;23.30
12918;BMP180;6526;54.312;13.092;2023-07-31T11:58:44;100800.00;;;23.40
12918;BMP180;6526;54.312;13.092;2023-07-31T12:01:11;100803.00;;;23.40
12918;BMP180;6526;54.312;13.092;2023-07-31T12:03:39;100797.00;;;23.40
12918;BMP180;6526;54.312;13.092;2023-07-31T12:06:05;100797.00;;;23.40
12918;BMP180;6526;54.312;13.092;2023-07-31T12:08:31;100801.00;;;23.30
12918;BMP180;6526;54.312;13.092;2023-07-31T12:11:06;100802.00;;;23.30
12918;BMP180;6526;54.312;13.092;2023-07-31T12:13:33;100805.00;;;23.30
12918;BMP180;6526;54.312;13.092;2023-07-31T12:16:01;100816.00;;;23.30
12918;BMP180;6526;54.312;13.092;2023-07-31T12:18:33;100812.00;;;23.20
12918;BMP180;6526;54.312;13.092;2023-07-31T12:21:00;100812.00;;;23.20
12918;BMP180;6526;54.312;13.092;2023-07-31T12:23:29;100809.00;;;23.00
12918;BMP180;6526;54.312;13.092;2023-07-31T12:28:45;100801.00;;;22.90
12918;BMP180;6526;54.312;13.092;2023-07-31T12:31:22;100806.00;;;22.80
12918;BMP180;6526;54.312;13.092;2023-07-31T12:33:50;100805.00;;;22.80
12918;BMP180;6526;54.312;13.092;2023-07-31T12:36:24;100805.00;;;22.70
12918;BMP180;6526;54.312;13.092;2023-07-31T12:38:51;100810.00;;;22.70
12918;BMP180;6526;54.312;13.092;2023-07-31T12:41:17;100797.00;;;22.60
12918;BMP180;6526;54.312;13.092;2023-07-31T12:43:44;100792.00;;;22.40
12918;BMP180;6526;54.312;13.092;2023-07-31T12:46:11;100796.00;;;22.30
12918;BMP180;6526;54.312;13.092;2023-07-31T12:48:40;100797.00;;;22.30
12918;BMP180;6526;54.312;13.092;2023-07-31T12:51:07;100793.00;;;22.20
12918;BMP180;6526;54.312;13.092;2023-07-31T12:53:33;100797.00;;;22.10
12918;BMP180;6526;54.312;13.092;2023-07-31T12:55:59;100787.00;;;22.00
12918;BMP180;6526;54.312;13.092;2023-07-31T12:58:25;100786.00;;;21.90
12918;BMP180;6526;54.312;13.092;2023-07-31T13:00:51;100782.00;;;21.80
12918;BMP180;6526;54.312;13.092;2023-07-31T13:03:17;100776.00;;;21.70
12918;BMP180;6526;54.312;13.092;2023-07-31T13:05:43;100776.00;;;21.60
12918;BMP180;6526;54.312;13.092;2023-07-31T13:08:09;100760.00;;;21.60
12918;BMP180;6526;54.312;13.092;2023-07-31T13:10:35;100755.00;;;21.50
12918;BMP180;6526;54.312;13.092;2023-07-31T13:13:01;100759.00;;;21.50
12918;BMP180;6526;54.312;13.092;2023-07-31T13:15:28;100767.00;;;21.40
12918;BMP180;6526;54.312;13.092;2023-07-31T13:17:54;100774.00;;;21.40
12918;BMP180;6526;54.312;13.092;2023-07-31T13:20:20;100783.00;;;21.40
12918;BMP180;6526;54.312;13.092;2023-07-31T13:22:46;100749.00;;;21.40
12918;BMP180;6526;54.312;13.092;2023-07-31T13:25:12;100791.00;;;21.30
12918;BMP180;6526;54.312;13.092;2023-07-31T13:27:38;100787.00;;;21.30
12918;BMP180;6526;54.312;13.092;2023-07-31T13:30:04;100773.00;;;21.40
12918;BMP180;6526;54.312;13.092;2023-07-31T13:32:30;100766.00;;;21.40
12918;BMP180;6526;54.312;13.092;2023-07-31T13:34:56;100765.00;;;21.40
12918;BMP180;6526;54.312;13.092;2023-07-31T13:37:22;100760.00;;;21.40
12918;BMP180;6526;54.312;13.092;2023-07-31T13:39:48;100745.00;;;21.30
12918;BMP180;6526;54.312;13.092;2023-07-31T13:42:14;100739.00;;;21.30
12918;BMP180;6526;54.312;13.092;2023-07-31T13:44:41;100737.00;;;21.30
12918;BMP180;6526;54.312;13.092;2023-07-31T13:47:08;100737.00;;;21.20
12918;BMP180;6526;54.312;13.092;2023-07-31T13:49:35;100735.00;;;21.20
12918;BMP180;6526;54.312;13.092;2023-07-31T13:52:01;100734.00;;;21.30
12918;BMP180;6526;54.312;13.092;2023-07-31T13:54:27;100736.00;;;21.30
12918;BMP180;6526;54.312;13.092;2023-07-31T13:56:54;100733.00;;;21.20
12918;BMP180;6526;54.312;13.092;2023-07-31T13:59:20;100740.00;;;21.10
12918;BMP180;6526;54.312;13.092;2023-07-31T14:01:46;100738.00;;;21.00